createdAt,value
2018-02-05T00:00:39.253Z,26.90
2018-02-05T00:03:06.673Z,25.67
2018-02-05T00:05:34.077Z,27.37
2018-02-05T00:08:01.501Z,27.50
2018-02-05T00:10:28.906Z,26.30
2018-02-05T00:12:56.321Z,26.07
2018-02-05T00:15:23.730Z,26.73
2018-02-05T00:17:51.163Z,26.55
2018-02-05T00:20:18.571Z,30.80
2018-02-05T00:22:45.977Z,29.53
2018-02-05T00:25:13.405Z,31.50
2018-02-05T00:27:40.808Z,33.73
2018-02-05T00:30:08.234Z,29.87
2018-02-05T00:32:35.643Z,36.30
2018-02-05T00:35:03.064Z,34.90
2018-02-05T00:37:30.468Z,30.30
2018-02-05T00:39:58.692Z,33.00
2018-02-05T00:42:26.101Z,34.37
2018-02-05T00:44:53.514Z,35.40
2018-02-05T00:47:20.916Z,40.50
2018-02-05T00:49:48.332Z,38.50
2018-02-05T00:52:15.748Z,41.80
2018-02-05T00:54:43.152Z,40.10
2018-02-05T00:57:10.560Z,41.87
2018-02-05T00:59:37.972Z,44.47
2018-02-05T01:02:05.383Z,43.40
2018-02-05T01:04:33.791Z,44.03
2018-02-05T01:07:01.193Z,40.70
2018-02-05T01:09:28.611Z,45.90
2018-02-05T01:11:56.242Z,40.77
2018-02-05T01:14:23.800Z,39.88
2018-02-05T01:16:51.186Z,42.70
2018-02-05T01:19:18.592Z,43.90
2018-02-05T01:21:45.998Z,42.70
2018-02-05T01:24:13.409Z,44.27
2018-02-05T01:26:40.826Z,42.23
2018-02-05T01:29:08.243Z,39.80
2018-02-05T01:31:35.657Z,43.97
2018-02-05T01:34:03.069Z,39.30
2018-02-05T01:36:30.489Z,38.20
2018-02-05T01:38:57.906Z,44.03
2018-02-05T01:41:25.325Z,39.58
2018-02-05T01:43:52.732Z,39.90
2018-02-05T01:46:20.153Z,36.80
2018-02-05T01:48:47.564Z,43.73
2018-02-05T01:51:15.031Z,42.70
2018-02-05T01:53:42.405Z,37.90
2018-02-05T01:56:10.600Z,44.57
2018-02-05T01:58:38.008Z,46.80
2018-02-05T02:01:05.429Z,44.07
2018-02-05T02:03:32.835Z,40.43
2018-02-05T02:06:00.254Z,45.97
2018-02-05T02:08:27.672Z,53.80
2018-02-05T02:10:55.308Z,47.03
2018-02-05T02:13:22.716Z,43.23
2018-02-05T02:15:50.141Z,46.22
2018-02-05T02:18:17.552Z,49.87
2018-02-05T02:20:44.982Z,47.50
2018-02-05T02:23:12.396Z,51.47
2018-02-05T02:25:39.814Z,44.90
2018-02-05T02:28:07.231Z,45.33
2018-02-05T02:30:34.662Z,42.45
2018-02-05T02:33:02.067Z,46.77
2018-02-05T02:35:29.472Z,40.87
2018-02-05T02:37:56.892Z,37.85
2018-02-05T02:40:24.313Z,34.13
2018-02-05T02:42:51.728Z,48.00
2018-02-05T02:45:19.935Z,40.28
2018-02-05T02:47:47.354Z,39.17
2018-02-05T02:50:14.772Z,40.20
2018-02-05T02:52:42.192Z,35.63
2018-02-05T02:55:09.613Z,40.13
2018-02-05T02:57:37.035Z,36.27
2018-02-05T03:00:04.449Z,40.87
2018-02-05T03:02:32.290Z,39.17
2018-02-05T03:04:59.708Z,42.00
2018-02-05T03:07:27.133Z,31.63
2018-02-05T03:09:54.541Z,31.17
2018-02-05T03:12:21.968Z,39.30
2018-02-05T03:14:49.377Z,33.27
2018-02-05T03:17:16.802Z,34.80
2018-02-05T03:19:44.216Z,36.50
2018-02-05T03:22:11.635Z,36.37
2018-02-05T03:24:39.057Z,42.47
2018-02-05T03:27:06.473Z,36.65
2018-02-05T03:29:33.887Z,36.90
2018-02-05T03:32:01.317Z,41.10
2018-02-05T03:34:28.721Z,41.73
2018-02-05T03:36:56.148Z,34.80
2018-02-05T03:39:23.560Z,41.83
2018-02-05T03:41:50.978Z,38.53
2018-02-05T03:44:18.383Z,39.47
2018-02-05T03:46:45.793Z,38.87
2018-02-05T03:49:13.210Z,38.83
2018-02-05T03:51:40.617Z,40.07
2018-02-05T03:54:08.052Z,40.17
2018-02-05T03:56:35.460Z,41.47
2018-02-05T03:59:02.891Z,35.17
2018-02-05T04:01:30.300Z,39.43
2018-02-05T04:03:58.668Z,40.47
2018-02-05T04:06:26.094Z,34.50
2018-02-05T04:08:53.512Z,38.70
2018-02-05T04:11:20.942Z,29.73
2018-02-05T04:13:48.350Z,39.07
2018-02-05T04:16:15.755Z,38.30
2018-02-05T04:18:43.177Z,32.87
2018-02-05T04:21:10.596Z,37.40
2018-02-05T04:23:38.018Z,36.00
2018-02-05T04:26:05.426Z,36.90
2018-02-05T04:28:32.892Z,41.47
2018-02-05T04:31:00.301Z,33.53
2018-02-05T04:33:27.712Z,34.33
2018-02-05T04:35:55.140Z,33.63
2018-02-05T04:38:22.563Z,37.20
2018-02-05T04:40:49.979Z,34.47
2018-02-05T04:43:17.411Z,39.13
2018-02-05T04:45:44.824Z,36.42
2018-02-05T04:48:12.257Z,33.47
2018-02-05T04:50:39.673Z,32.37
2018-02-05T04:53:07.092Z,37.25
2018-02-05T04:55:34.508Z,38.47
2018-02-05T04:58:01.932Z,39.23
2018-02-05T05:00:29.347Z,31.95
2018-02-05T05:02:56.769Z,37.60
2018-02-05T05:05:24.181Z,36.43
2018-02-05T05:07:51.613Z,34.70
2018-02-05T05:10:19.812Z,37.27
2018-02-05T05:12:47.222Z,35.30
2018-02-05T05:15:14.647Z,33.00
2018-02-05T05:17:42.061Z,34.57
2018-02-05T05:20:10.470Z,36.80
2018-02-05T05:22:37.885Z,34.20
2018-02-05T05:27:39.102Z,36.93
2018-02-05T05:30:06.520Z,32.80
2018-02-05T05:32:33.935Z,32.60
2018-02-05T05:35:01.680Z,34.17
2018-02-05T05:37:29.083Z,36.80
2018-02-05T05:39:56.513Z,35.03
2018-02-05T05:42:23.925Z,34.60
2018-02-05T05:44:51.349Z,30.77
2018-02-05T05:47:18.759Z,33.77
2018-02-05T05:49:46.180Z,37.20
2018-02-05T05:52:13.598Z,28.50
2018-02-05T05:54:41.026Z,38.63
2018-02-05T05:57:08.437Z,38.67
2018-02-05T05:59:35.869Z,34.40
2018-02-05T06:02:03.282Z,30.97
2018-02-05T06:04:30.706Z,33.73
2018-02-05T06:06:58.104Z,30.43
2018-02-05T06:09:25.527Z,30.47
2018-02-05T06:11:52.937Z,36.47
2018-02-05T06:14:20.402Z,26.67
2018-02-05T06:16:47.813Z,32.20
2018-02-05T06:19:15.220Z,31.98
2018-02-05T06:21:42.657Z,31.87
2018-02-05T06:24:10.064Z,29.60
2018-02-05T06:26:37.484Z,33.58
2018-02-05T06:29:04.897Z,31.40
2018-02-05T06:31:32.330Z,29.00
2018-02-05T06:33:59.745Z,26.15
2018-02-05T06:36:27.164Z,34.80
2018-02-05T06:38:54.581Z,29.67
2018-02-05T06:41:22.007Z,26.77
2018-02-05T06:43:49.418Z,22.97
2018-02-05T06:46:16.841Z,28.50
2018-02-05T06:48:44.270Z,27.37
2018-02-05T06:51:23.554Z,31.70
2018-02-05T06:54:02.728Z,29.40
2018-02-05T06:56:30.144Z,33.50
2018-02-05T06:58:57.566Z,33.27
2018-02-05T07:01:24.981Z,24.70
2018-02-05T07:03:52.392Z,30.03
2018-02-05T07:06:19.813Z,29.02
2018-02-05T07:08:47.229Z,29.70
2018-02-05T07:11:14.652Z,29.40
2018-02-05T07:13:42.064Z,29.23
2018-02-05T07:16:09.485Z,33.30
2018-02-05T07:18:36.892Z,26.13
2018-02-05T07:21:04.313Z,25.83
2018-02-05T07:23:31.721Z,27.70
2018-02-05T07:25:59.137Z,24.40
2018-02-05T07:28:26.549Z,31.17
2018-02-05T07:30:53.981Z,35.93
2018-02-05T07:33:21.409Z,30.80
2018-02-05T07:35:48.816Z,29.43
2018-02-05T07:38:16.245Z,32.10
2018-02-05T07:40:43.657Z,30.23
2018-02-05T07:43:11.086Z,34.23
2018-02-05T07:45:38.495Z,29.37
2018-02-05T07:48:06.578Z,29.70
2018-02-05T07:50:33.980Z,32.57
2018-02-05T07:53:01.404Z,25.20
2018-02-05T07:55:28.832Z,33.27
2018-02-05T07:57:56.257Z,34.00
2018-02-05T08:00:23.665Z,31.83
2018-02-05T08:02:51.090Z,26.57
2018-02-05T08:05:18.500Z,34.87
2018-02-05T08:07:45.921Z,29.90
2018-02-05T08:10:13.337Z,29.40
2018-02-05T08:12:40.758Z,27.20
2018-02-05T08:15:08.164Z,32.73
2018-02-05T08:17:35.594Z,30.10
2018-02-05T08:20:03.004Z,27.57
2018-02-05T08:22:30.424Z,27.20
2018-02-05T08:24:57.837Z,27.65
2018-02-05T08:27:25.260Z,23.30
2018-02-05T08:29:52.681Z,29.30
2018-02-05T08:32:20.096Z,28.95
2018-02-05T08:34:47.521Z,26.43
2018-02-05T08:37:14.944Z,28.03
2018-02-05T08:39:42.365Z,27.63
2018-02-05T08:42:09.790Z,30.63
2018-02-05T08:44:37.196Z,25.33
2018-02-05T08:47:04.640Z,26.15
2018-02-05T08:49:32.048Z,29.83
2018-02-05T08:52:00.392Z,26.87
2018-02-05T08:54:27.837Z,27.65
2018-02-05T08:56:55.242Z,24.37
2018-02-05T08:59:22.663Z,26.10
2018-02-05T09:01:50.064Z,18.60
2018-02-05T09:04:17.476Z,26.77
2018-02-05T09:06:44.880Z,30.27
2018-02-05T09:09:12.294Z,23.43
2018-02-05T09:11:39.760Z,24.00
2018-02-05T09:14:07.178Z,26.00
2018-02-05T09:16:34.584Z,24.03
2018-02-05T09:19:02.004Z,24.60
2018-02-05T09:21:29.410Z,26.30
2018-02-05T09:23:56.829Z,25.83
2018-02-05T09:26:24.236Z,24.92
2018-02-05T09:28:51.656Z,25.27
2018-02-05T09:31:19.075Z,26.20
2018-02-05T09:33:46.489Z,24.23
2018-02-05T09:36:13.900Z,19.90
2018-02-05T09:38:41.323Z,24.87
2018-02-05T09:41:08.725Z,23.53
2018-02-05T09:43:36.146Z,21.73
2018-02-05T09:46:03.560Z,27.47
2018-02-05T09:48:30.984Z,24.80
2018-02-05T09:50:58.390Z,25.20
2018-02-05T09:53:25.801Z,24.53
2018-02-05T09:55:53.204Z,19.83
2018-02-05T09:58:20.639Z,24.08
2018-02-05T10:00:48.047Z,23.60
2018-02-05T10:03:15.462Z,23.07
2018-02-05T10:05:42.976Z,25.42
2018-02-05T10:08:10.389Z,20.80
2018-02-05T10:10:37.801Z,24.23
2018-02-05T10:13:05.205Z,23.95
2018-02-05T10:15:32.624Z,22.50
2018-02-05T10:18:00.029Z,26.60
2018-02-05T10:20:27.666Z,20.83
2018-02-05T10:22:55.069Z,17.43
2018-02-05T10:25:22.488Z,20.00
2018-02-05T10:27:49.904Z,21.93
2018-02-05T10:30:17.321Z,24.40
2018-02-05T10:32:44.735Z,18.40
2018-02-05T10:35:12.154Z,22.98
2018-02-05T10:37:39.556Z,21.60
2018-02-05T10:40:06.976Z,17.87
2018-02-05T10:42:34.402Z,26.42
2018-02-05T10:45:01.815Z,19.77
2018-02-05T10:47:29.220Z,22.67
2018-02-05T10:49:56.633Z,27.90
2018-02-05T10:52:24.036Z,21.47
2018-02-05T10:54:51.448Z,19.13
2018-02-05T10:57:18.864Z,24.83
2018-02-05T10:59:46.289Z,22.23
2018-02-05T11:02:14.637Z,25.52
2018-02-05T11:04:42.060Z,21.83
2018-02-05T11:07:09.476Z,25.80
2018-02-05T11:09:36.907Z,21.92
2018-02-05T11:12:04.312Z,22.07
2018-02-05T11:14:31.729Z,22.63
2018-02-05T11:16:59.148Z,28.35
2018-02-05T11:19:26.552Z,19.97
2018-02-05T11:21:53.964Z,18.10
2018-02-05T11:24:21.377Z,20.10
2018-02-05T11:26:48.788Z,19.87
2018-02-05T11:29:16.196Z,24.83
2018-02-05T11:31:43.615Z,22.80
2018-02-05T11:34:11.031Z,22.93
2018-02-05T11:36:38.444Z,22.80
2018-02-05T11:39:05.850Z,22.73
2018-02-05T11:41:33.265Z,22.70
2018-02-05T11:44:00.673Z,22.23
2018-02-05T11:46:28.097Z,20.50
2018-02-05T11:48:55.493Z,24.63
2018-02-05T11:51:22.909Z,21.90
2018-02-05T11:53:50.325Z,22.17
2018-02-05T11:56:17.748Z,20.30
2018-02-05T11:58:45.161Z,20.00
2018-02-05T12:01:12.573Z,20.37
2018-02-05T12:03:39.993Z,18.27
2018-02-05T12:06:07.484Z,21.80
2018-02-05T12:08:34.881Z,17.42
2018-02-05T12:11:02.305Z,19.80
2018-02-05T12:13:29.724Z,19.67
2018-02-05T12:15:57.144Z,18.53
2018-02-05T12:18:24.549Z,20.40
2018-02-05T12:20:51.973Z,20.80
2018-02-05T12:23:19.380Z,20.83
2018-02-05T12:25:46.785Z,17.53
2018-02-05T12:28:14.204Z,16.17
2018-02-05T12:30:41.626Z,14.13
2018-02-05T12:33:09.033Z,20.27
2018-02-05T12:35:36.444Z,18.87
2018-02-05T12:38:03.860Z,15.60
2018-02-05T12:40:31.270Z,18.60
2018-02-05T12:42:58.693Z,18.13
2018-02-05T12:45:26.096Z,17.60
2018-02-05T12:47:53.517Z,17.52
2018-02-05T12:50:20.932Z,18.97
2018-02-05T12:52:48.357Z,16.33
2018-02-05T12:55:15.764Z,18.53
2018-02-05T12:57:43.177Z,15.13
2018-02-05T13:00:16.092Z,16.80
2018-02-05T13:05:50.234Z,16.48
2018-02-05T13:08:17.661Z,18.12
2018-02-05T13:10:45.071Z,12.03
2018-02-05T13:13:12.486Z,11.03
2018-02-05T13:15:39.892Z,16.73
2018-02-05T13:18:07.304Z,10.77
2018-02-05T13:20:34.716Z,11.77
2018-02-05T13:23:02.128Z,9.17
2018-02-05T13:25:29.536Z,10.20
2018-02-05T13:27:56.958Z,10.50
2018-02-05T13:30:24.369Z,11.40
2018-02-05T13:32:52.160Z,12.77
2018-02-05T13:35:19.586Z,10.90
2018-02-05T13:37:46.996Z,11.67
2018-02-05T13:40:14.415Z,11.40
2018-02-05T13:42:41.828Z,10.73
2018-02-05T13:45:09.230Z,9.60
2018-02-05T13:47:36.645Z,9.63
2018-02-05T13:50:04.053Z,10.50
2018-02-05T13:52:31.484Z,11.23
2018-02-05T13:54:58.889Z,14.33
2018-02-05T13:57:26.302Z,15.13
2018-02-05T13:59:53.724Z,11.03
2018-02-05T14:02:21.133Z,16.47
2018-02-05T14:04:48.559Z,16.60
2018-02-05T14:07:15.979Z,17.03
2018-02-05T14:09:43.385Z,14.30
2018-02-05T14:12:10.794Z,9.60
2018-02-05T14:14:38.209Z,13.40
2018-02-05T14:17:05.669Z,13.35
2018-02-05T14:19:33.076Z,11.53
2018-02-05T14:22:00.486Z,12.90
2018-02-05T14:24:27.914Z,16.27
2018-02-05T14:26:55.320Z,12.17
2018-02-05T14:29:23.093Z,13.52
2018-02-05T14:31:50.498Z,15.10
2018-02-05T14:34:17.912Z,14.90
2018-02-05T14:36:45.329Z,16.20
2018-02-05T14:39:12.740Z,15.93
2018-02-05T14:41:40.146Z,16.97
2018-02-05T14:44:07.564Z,13.47
2018-02-05T14:46:34.968Z,14.97
2018-02-05T14:49:02.415Z,16.60
2018-02-05T14:51:29.808Z,16.70
2018-02-05T14:53:57.226Z,18.13
2018-02-05T14:56:24.637Z,13.38
2018-02-05T14:58:52.105Z,13.17
2018-02-05T15:01:19.515Z,16.27
2018-02-05T15:03:46.940Z,13.32
2018-02-05T15:06:14.348Z,19.47
2018-02-05T15:08:41.758Z,15.63
2018-02-05T15:11:09.172Z,13.97
2018-02-05T15:13:36.580Z,11.43
2018-02-05T15:16:04.593Z,15.93
2018-02-05T15:18:32.002Z,16.20
2018-02-05T15:20:59.835Z,16.60
2018-02-05T15:23:27.237Z,15.03
2018-02-05T15:25:54.660Z,16.00
2018-02-05T15:28:22.056Z,15.80
2018-02-05T15:30:49.492Z,13.47
2018-02-05T15:33:16.897Z,15.70
2018-02-05T15:35:44.317Z,13.30
2018-02-05T15:38:11.724Z,14.47
2018-02-05T15:40:39.140Z,13.57
2018-02-05T15:43:06.555Z,15.77
2018-02-05T15:45:33.965Z,14.30
2018-02-05T15:48:01.386Z,12.50
2018-02-05T15:50:29.226Z,15.30
2018-02-05T15:52:56.625Z,14.20
2018-02-05T15:55:24.059Z,18.30
2018-02-05T15:57:51.461Z,15.48
2018-02-05T16:00:18.877Z,15.27
2018-02-05T16:02:46.305Z,14.97
2018-02-05T16:05:13.712Z,16.47
2018-02-05T16:07:41.129Z,17.73
2018-02-05T16:10:08.540Z,17.37
2018-02-05T16:12:35.955Z,16.43
2018-02-05T16:15:03.350Z,11.80
2018-02-05T16:17:30.767Z,15.90
2018-02-05T16:19:58.165Z,16.13
2018-02-05T16:22:26.254Z,16.15
2018-02-05T16:24:53.655Z,17.63
2018-02-05T16:27:21.064Z,15.33
2018-02-05T16:29:48.477Z,14.37
2018-02-05T16:32:15.896Z,16.20
2018-02-05T16:34:43.296Z,14.50
2018-02-05T16:37:10.716Z,15.50
2018-02-05T16:39:38.130Z,16.60
2018-02-05T16:42:05.597Z,15.80
2018-02-05T16:44:33.008Z,16.90
2018-02-05T16:47:00.408Z,16.33
2018-02-05T16:49:27.812Z,16.67
2018-02-05T16:51:55.221Z,14.17
2018-02-05T16:54:22.624Z,15.80
2018-02-05T16:56:50.036Z,12.90
2018-02-05T16:59:17.453Z,15.17
2018-02-05T17:01:44.861Z,13.50
2018-02-05T17:04:12.271Z,16.70
2018-02-05T17:06:39.680Z,15.87
2018-02-05T17:09:07.084Z,13.90
2018-02-05T17:11:34.507Z,13.07
2018-02-05T17:14:01.907Z,12.57
2018-02-05T17:16:29.322Z,16.13
2018-02-05T17:18:56.716Z,12.50
2018-02-05T17:21:24.141Z,17.33
2018-02-05T17:23:51.541Z,14.87
2018-02-05T17:26:18.944Z,17.63
2018-02-05T17:28:46.352Z,17.40
2018-02-05T17:31:13.756Z,17.20
2018-02-05T17:33:41.176Z,19.00
2018-02-05T17:36:09.585Z,18.90
2018-02-05T17:38:36.999Z,18.90
2018-02-05T17:41:04.401Z,17.33
2018-02-05T17:43:32.028Z,16.60
2018-02-05T17:45:59.428Z,15.13
2018-02-05T17:48:26.845Z,19.03
2018-02-05T17:50:54.257Z,17.97
2018-02-05T17:53:21.669Z,17.10
2018-02-05T17:55:49.078Z,14.87
2018-02-05T17:58:16.484Z,17.83
2018-02-05T18:00:44.376Z,16.80
2018-02-05T18:03:11.794Z,16.43
2018-02-05T18:05:39.205Z,17.08
2018-02-05T18:08:06.612Z,17.27
2018-02-05T18:10:34.040Z,14.80
2018-02-05T18:13:01.440Z,16.60
2018-02-05T18:15:29.805Z,18.55
2018-02-05T18:17:57.222Z,17.67
2018-02-05T18:20:24.619Z,16.05
2018-02-05T18:22:52.050Z,17.57
2018-02-05T18:25:19.448Z,14.00
2018-02-05T18:27:46.860Z,17.37
2018-02-05T18:30:15.205Z,20.37
2018-02-05T18:32:42.635Z,19.80
2018-02-05T18:35:10.612Z,19.00
2018-02-05T18:37:38.032Z,20.33
2018-02-05T18:40:05.445Z,17.43
2018-02-05T18:42:32.854Z,18.20
2018-02-05T18:45:00.696Z,19.70
2018-02-05T18:47:28.089Z,16.10
2018-02-05T18:49:55.511Z,18.97
2018-02-05T18:52:22.919Z,15.63
2018-02-05T18:54:50.770Z,17.70
2018-02-05T18:57:18.173Z,14.43
2018-02-05T18:59:45.588Z,15.90
2018-02-05T19:02:22.692Z,16.20
2018-02-05T19:04:50.113Z,15.27
2018-02-05T19:07:18.640Z,13.37
2018-02-05T19:09:46.059Z,17.60
2018-02-05T19:12:13.787Z,11.10
2018-02-05T19:14:41.243Z,15.07
2018-02-05T19:17:08.643Z,17.55
2018-02-05T19:19:36.085Z,15.20
2018-02-05T19:22:03.501Z,14.77
2018-02-05T19:24:30.924Z,15.90
2018-02-05T19:26:58.374Z,15.17
2018-02-05T19:29:25.778Z,17.30
2018-02-05T19:31:53.188Z,14.93
2018-02-05T19:34:20.604Z,12.30
2018-02-05T19:36:48.008Z,14.63
2018-02-05T19:39:15.434Z,13.30
2018-02-05T19:41:43.642Z,17.40
2018-02-05T19:44:11.065Z,13.47
2018-02-05T19:46:38.475Z,14.27
2018-02-05T19:49:05.896Z,15.17
2018-02-05T19:51:33.309Z,13.30
2018-02-05T19:54:00.708Z,15.60
2018-02-05T19:56:28.129Z,12.73
2018-02-05T19:58:55.579Z,12.67
2018-02-05T20:01:22.985Z,14.13
2018-02-05T20:03:50.431Z,14.63
2018-02-05T20:06:17.837Z,12.37
2018-02-05T20:08:45.236Z,15.23
2018-02-05T20:11:12.662Z,15.80
2018-02-05T20:13:40.121Z,17.00
2018-02-05T20:16:07.525Z,15.57
2018-02-05T20:18:34.935Z,15.00
2018-02-05T20:21:02.370Z,13.90
2018-02-05T20:23:29.766Z,14.83
2018-02-05T20:25:57.172Z,18.07
2018-02-05T20:28:24.581Z,13.73
2018-02-05T20:30:52.552Z,15.70
2018-02-05T20:33:20.008Z,18.40
2018-02-05T20:35:47.408Z,13.03
2018-02-05T20:38:14.813Z,15.60
2018-02-05T20:40:42.277Z,16.57
2018-02-05T20:43:09.678Z,14.30
2018-02-05T20:45:37.090Z,14.07
2018-02-05T20:48:05.039Z,14.57
2018-02-05T20:50:32.445Z,13.37
2018-02-05T20:53:00.688Z,15.80
2018-02-05T20:55:28.164Z,15.82
2018-02-05T20:57:55.565Z,14.40
2018-02-05T21:00:22.987Z,14.00
2018-02-05T21:02:50.389Z,13.70
2018-02-05T21:05:17.864Z,15.47
2018-02-05T21:07:45.305Z,17.10
2018-02-05T21:10:12.697Z,14.47
2018-02-05T21:12:40.108Z,16.23
2018-02-05T21:15:07.570Z,17.20
2018-02-05T21:17:36.044Z,17.20
2018-02-05T21:20:03.573Z,15.47
2018-02-05T21:22:31.480Z,15.75
2018-02-05T21:24:58.944Z,14.60
2018-02-05T21:27:26.344Z,15.10
2018-02-05T21:29:54.587Z,17.40
2018-02-05T21:32:22.024Z,17.47
2018-02-05T21:34:49.434Z,16.87
2018-02-05T21:37:16.840Z,13.33
2018-02-05T21:39:47.094Z,14.50
2018-02-05T21:42:14.513Z,16.70
2018-02-05T21:44:41.960Z,18.57
2018-02-05T21:47:09.365Z,17.03
2018-02-05T21:49:37.609Z,19.00
2018-02-05T21:52:05.022Z,18.35
2018-02-05T21:54:32.975Z,14.20
2018-02-05T21:57:00.396Z,15.50
2018-02-05T22:02:40.733Z,17.37
2018-02-05T22:05:08.153Z,17.87
2018-02-05T22:07:35.604Z,14.77
2018-02-05T22:10:03.009Z,12.20
2018-02-05T22:12:30.444Z,16.80
2018-02-05T22:14:57.904Z,16.07
2018-02-05T22:17:25.313Z,15.33
2018-02-05T22:19:52.727Z,17.20
2018-02-05T22:22:20.144Z,16.85
2018-02-05T22:24:47.551Z,15.77
2018-02-05T22:27:14.985Z,19.47
2018-02-05T22:29:42.397Z,18.73
2018-02-05T22:32:09.827Z,14.60
2018-02-05T22:34:37.265Z,17.80
2018-02-05T22:37:04.676Z,15.83
2018-02-05T22:39:32.095Z,17.90
2018-02-05T22:41:59.507Z,17.40
2018-02-05T22:44:26.924Z,17.47
2018-02-05T22:46:54.341Z,19.50
2018-02-05T22:49:21.761Z,19.40
2018-02-05T22:51:49.165Z,19.60
2018-02-05T22:54:16.589Z,16.40
2018-02-05T22:56:44.004Z,17.83
2018-02-05T22:59:11.424Z,19.00
2018-02-05T23:01:38.834Z,16.93
2018-02-05T23:04:06.248Z,21.00
2018-02-05T23:06:33.661Z,20.33
2018-02-05T23:09:01.077Z,17.80
2018-02-05T23:11:29.404Z,18.20
2018-02-05T23:13:56.887Z,19.80
2018-02-05T23:16:24.292Z,20.30
2018-02-05T23:18:51.713Z,17.47
2018-02-05T23:21:19.122Z,17.97
2018-02-05T23:23:46.538Z,18.20
2018-02-05T23:26:13.944Z,17.07
2018-02-05T23:28:41.361Z,17.33
2018-02-05T23:31:08.788Z,20.47
2018-02-05T23:33:36.864Z,18.07
2018-02-05T23:36:04.277Z,19.92
2018-02-05T23:38:31.764Z,19.40
2018-02-05T23:40:59.173Z,17.50
2018-02-05T23:43:26.592Z,16.37
2018-02-05T23:45:54.004Z,19.70
2018-02-05T23:48:21.449Z,19.20
2018-02-05T23:50:48.848Z,14.95
2018-02-05T23:53:16.265Z,21.23
2018-02-05T23:55:43.686Z,17.80
2018-02-05T23:58:11.103Z,14.55
